createdAt,value
2022-09-10T00:01:32.253Z,97838.59
2022-09-10T00:04:01.397Z,97843.34
2022-09-10T00:06:33.055Z,97834.75
2022-09-10T00:09:02.484Z,97817.06
2022-09-10T00:11:31.938Z,97828.13
2022-09-10T00:14:00.437Z,97823.81
2022-09-10T00:16:29.243Z,97825.41
2022-09-10T00:18:58.187Z,97820.31
2022-09-10T00:21:26.237Z,97825.88
2022-09-10T00:23:54.451Z,97824.75
2022-09-10T00:26:26.596Z,97831.00
2022-09-10T00:28:55.569Z,97820.78
2022-09-10T00:31:24.490Z,97819.19
2022-09-10T00:33:54.694Z,97817.59
2022-09-10T00:36:25.455Z,97813.66
2022-09-10T00:38:55.808Z,97812.91
2022-09-10T00:41:26.365Z,97814.50
2022-09-10T00:43:56.122Z,97823.44
2022-09-10T00:46:30.985Z,97825.75
2022-09-10T00:49:01.963Z,97821.44
2022-09-10T00:51:34.611Z,97826.88
2022-09-10T00:54:03.622Z,97826.78
2022-09-10T00:56:34.821Z,97827.94
2022-09-10T00:59:03.897Z,97823.22
2022-09-10T01:01:33.609Z,97831.09
2022-09-10T01:04:04.566Z,97836.59
2022-09-10T01:06:32.847Z,97838.97
2022-09-10T01:09:02.956Z,97839.78
2022-09-10T01:11:47.773Z,97837.84
2022-09-10T01:14:43.548Z,97845.75
2022-09-10T01:17:26.689Z,97843.41
2022-09-10T01:20:18.852Z,97848.91
2022-09-10T01:23:04.770Z,97841.47
2022-09-10T01:25:44.989Z,97835.22
2022-09-10T01:28:20.260Z,97830.09
2022-09-10T01:30:54.732Z,97827.78
2022-09-10T01:33:31.786Z,97838.41
2022-09-10T01:36:02.861Z,97844.25
2022-09-10T01:38:34.825Z,97828.56
2022-09-10T01:41:03.308Z,97834.13
2022-09-10T01:43:33.204Z,97830.19
2022-09-10T01:46:15.640Z,97838.06
2022-09-10T01:49:14.579Z,97836.50
2022-09-10T01:51:56.285Z,97834.91
2022-09-10T01:54:39.369Z,97822.69
2022-09-10T01:57:14.774Z,97831.59
2022-09-10T01:59:51.829Z,97821.38
2022-09-10T02:02:23.531Z,97825.28
2022-09-10T02:04:53.348Z,97819.00
2022-09-10T02:07:26.879Z,97801.66
2022-09-10T02:09:55.637Z,97811.13
2022-09-10T02:12:24.527Z,97798.09
2022-09-10T02:14:56.335Z,97805.59
2022-09-10T02:17:30.940Z,97801.63
2022-09-10T02:20:00.475Z,97799.97
2022-09-10T02:22:31.609Z,97793.31
2022-09-10T02:24:59.669Z,97785.78
2022-09-10T02:27:30.013Z,97779.44
2022-09-10T02:29:59.545Z,97781.78
2022-09-10T02:32:28.221Z,97770.81
2022-09-10T02:34:56.010Z,97777.22
2022-09-10T02:37:24.203Z,97772.53
2022-09-10T02:39:52.049Z,97779.56
2022-09-10T02:42:20.076Z,97779.19
2022-09-10T02:44:48.218Z,97788.59
2022-09-10T02:47:18.180Z,97778.38
2022-09-10T02:49:46.874Z,97784.69
2022-09-10T02:52:14.910Z,97792.88
2022-09-10T02:54:42.728Z,97785.09
2022-09-10T02:57:12.173Z,97792.94
2022-09-10T02:59:40.192Z,97787.81
2022-09-10T03:02:07.943Z,97784.69
2022-09-10T03:04:37.116Z,97778.81
2022-09-10T03:07:05.440Z,97773.34
2022-09-10T03:09:33.327Z,97774.53
2022-09-10T03:12:01.052Z,97781.59
2022-09-10T03:14:30.292Z,97780.81
2022-09-10T03:16:58.198Z,97791.44
2022-09-10T03:19:25.924Z,97793.81
2022-09-10T03:21:55.267Z,97792.28
2022-09-10T03:24:23.317Z,97780.91
2022-09-10T03:26:51.074Z,97786.81
2022-09-10T03:29:19.205Z,97791.53
2022-09-10T03:31:46.959Z,97787.63
2022-09-10T03:34:15.228Z,97777.81
2022-09-10T03:36:43.210Z,97776.22
2022-09-10T03:39:12.386Z,97773.13
2022-09-10T03:41:40.294Z,97780.59
2022-09-10T03:44:08.392Z,97779.03
2022-09-10T03:46:37.728Z,97768.03
2022-09-10T03:49:05.913Z,97776.66
2022-09-10T03:51:35.196Z,97778.63
2022-09-10T03:54:02.945Z,97780.94
2022-09-10T03:56:32.222Z,97785.28
2022-09-10T03:59:00.521Z,97769.63
2022-09-10T04:01:28.329Z,97766.09
2022-09-10T04:03:56.842Z,97764.94
2022-09-10T04:06:24.857Z,97775.53
2022-09-10T04:08:53.417Z,97773.22
2022-09-10T04:11:23.896Z,97768.03
2022-09-10T04:13:53.951Z,97771.63
2022-09-10T04:16:23.287Z,97779.06
2022-09-10T04:18:51.314Z,97776.66
2022-09-10T04:21:20.191Z,97779.38
2022-09-10T04:23:47.900Z,97770.66
2022-09-10T04:26:17.456Z,97762.00
2022-09-10T04:28:46.183Z,97765.59
2022-09-10T04:31:15.553Z,97769.47
2022-09-10T04:33:43.291Z,97760.06
2022-09-10T04:36:12.792Z,97766.31
2022-09-10T04:38:42.095Z,97764.41
2022-09-10T04:41:10.114Z,97758.53
2022-09-10T04:43:38.721Z,97760.88
2022-09-10T04:46:06.642Z,97760.47
2022-09-10T04:48:36.007Z,97758.53
2022-09-10T04:51:16.057Z,97748.31
2022-09-10T04:53:45.354Z,97760.06
2022-09-10T04:56:13.914Z,97757.63
2022-09-10T04:58:42.147Z,97755.22
2022-09-10T05:01:10.319Z,97744.03
2022-09-10T05:03:39.813Z,97750.69
2022-09-10T05:06:07.755Z,97751.16
2022-09-10T05:08:36.553Z,97736.16
2022-09-10T05:11:05.159Z,97746.34
2022-09-10T05:13:32.919Z,97738.41
2022-09-10T05:16:01.566Z,97738.84
2022-09-10T05:18:29.830Z,97740.03
2022-09-10T05:20:58.910Z,97743.91
2022-09-10T05:23:27.190Z,97746.63
2022-09-10T05:25:56.698Z,97744.75
2022-09-10T05:28:24.825Z,97732.81
2022-09-10T05:30:52.604Z,97739.56
2022-09-10T05:33:21.361Z,97745.03
2022-09-10T05:35:51.532Z,97741.16
2022-09-10T05:38:20.879Z,97737.63
2022-09-10T05:40:49.030Z,97736.78
2022-09-10T05:43:16.755Z,97735.91
2022-09-10T05:45:44.561Z,97738.34
2022-09-10T05:48:13.237Z,97729.31
2022-09-10T05:50:41.333Z,97744.59
2022-09-10T05:53:10.000Z,97731.31
2022-09-10T05:55:39.757Z,97728.41
2022-09-10T05:58:07.512Z,97740.97
2022-09-10T06:00:36.475Z,97739.84
2022-09-10T06:03:05.902Z,97747.66
2022-09-10T06:05:33.735Z,97735.16
2022-09-10T06:08:06.510Z,97731.91
2022-09-10T06:10:36.849Z,97734.69
2022-09-10T06:13:05.909Z,97739.41
2022-09-10T06:15:37.813Z,97735.81
2022-09-10T06:18:05.890Z,97738.63
2022-09-10T06:20:33.682Z,97728.06
2022-09-10T06:23:01.457Z,97734.78
2022-09-10T06:25:29.549Z,97737.84
2022-09-10T06:27:57.253Z,97735.94
2022-09-10T06:30:26.460Z,97738.69
2022-09-10T06:32:54.863Z,97721.00
2022-09-10T06:35:22.774Z,97741.44
2022-09-10T06:37:50.576Z,97739.84
2022-09-10T06:40:18.670Z,97739.78
2022-09-10T06:42:46.573Z,97739.09
2022-09-10T06:45:14.580Z,97745.41
2022-09-10T06:48:36.785Z,97736.09
2022-09-10T06:50:31.855Z,97743.13
2022-09-10T06:52:59.845Z,97747.06
2022-09-10T06:55:27.559Z,97750.22
2022-09-10T06:57:55.476Z,97747.88
2022-09-10T07:00:23.469Z,97751.81
2022-09-10T07:02:54.249Z,97751.78
2022-09-10T07:05:22.066Z,97747.53
2022-09-10T07:07:50.090Z,97748.03
2022-09-10T07:10:17.876Z,97742.50
2022-09-10T07:12:45.926Z,97740.94
2022-09-10T07:15:14.054Z,97745.59
2022-09-10T07:17:41.775Z,97743.69
2022-09-10T07:20:11.354Z,97749.75
2022-09-10T07:22:39.491Z,97752.47
2022-09-10T07:25:08.552Z,97756.69
2022-09-10T07:27:36.389Z,97756.00
2022-09-10T07:30:04.916Z,97756.78
2022-09-10T07:32:35.179Z,97762.31
2022-09-10T07:35:02.896Z,97762.41
2022-09-10T07:37:32.238Z,97760.25
2022-09-10T07:40:00.110Z,97762.81
2022-09-10T07:42:28.392Z,97760.19
2022-09-10T07:44:56.424Z,97764.66
2022-09-10T07:47:24.288Z,97757.00
2022-09-10T07:49:53.177Z,97754.34
2022-09-10T07:52:21.644Z,97756.28
2022-09-10T07:54:50.741Z,97760.75
2022-09-10T07:57:18.733Z,97762.72
2022-09-10T07:59:47.479Z,97764.25
2022-09-10T08:02:16.241Z,97762.00
2022-09-10T08:04:44.029Z,97771.00
2022-09-10T08:07:12.645Z,97774.56
2022-09-10T08:09:40.365Z,97768.47
2022-09-10T08:12:09.949Z,97765.41
2022-09-10T08:14:38.359Z,97765.63
2022-09-10T08:17:06.862Z,97770.69
2022-09-10T08:19:34.825Z,97771.09
2022-09-10T08:22:03.512Z,97779.81
2022-09-10T08:24:31.531Z,97775.97
2022-09-10T08:26:59.395Z,97776.78
2022-09-10T08:29:29.841Z,97777.59
2022-09-10T08:31:58.219Z,97776.91
2022-09-10T08:34:27.015Z,97774.53
2022-09-10T08:36:55.497Z,97779.19
2022-09-10T08:39:24.091Z,97775.69
2022-09-10T08:41:57.154Z,97772.25
2022-09-10T08:44:35.649Z,97774.59
2022-09-10T08:47:14.849Z,97772.25
2022-09-10T08:49:46.933Z,97774.97
2022-09-10T08:52:21.748Z,97764.09
2022-09-10T08:54:58.396Z,97768.81
2022-09-10T08:57:32.384Z,97772.00
2022-09-10T09:00:03.651Z,97775.06
2022-09-10T09:02:49.143Z,97782.56
2022-09-10T09:05:20.031Z,97781.81
2022-09-10T09:07:49.411Z,97773.13
2022-09-10T09:10:28.247Z,97775.50
2022-09-10T09:13:17.811Z,97781.81
2022-09-10T09:15:56.041Z,97776.69
2022-09-10T09:18:31.382Z,97777.13
2022-09-10T09:21:04.276Z,97770.84
2022-09-10T09:24:02.777Z,97772.41
2022-09-10T09:26:36.486Z,97777.94
2022-09-10T09:29:10.852Z,97777.13
2022-09-10T09:31:43.694Z,97775.56
2022-09-10T09:34:19.185Z,97774.78
2022-09-10T09:36:51.220Z,97775.56
2022-09-10T09:39:25.716Z,97773.59
2022-09-10T09:42:03.177Z,97769.25
2022-09-10T09:44:38.774Z,97763.78
2022-09-10T09:47:08.929Z,97769.69
2022-09-10T09:49:37.052Z,97770.84
2022-09-10T09:52:18.402Z,97767.72
2022-09-10T09:55:15.682Z,97763.38
2022-09-10T09:57:38.910Z,97764.56
2022-09-10T10:00:36.505Z,97766.94
2022-09-10T10:03:13.991Z,97770.06
2022-09-10T10:05:42.345Z,97769.28
2022-09-10T10:08:30.758Z,97766.94
2022-09-10T10:10:59.781Z,97764.56
2022-09-10T10:13:37.224Z,97763.38
2022-09-10T10:16:17.159Z,97759.44
2022-09-10T10:18:46.775Z,97756.28
2022-09-10T10:21:18.537Z,97745.69
2022-09-10T10:23:47.204Z,97748.81
2022-09-10T10:26:25.453Z,97751.91
2022-09-10T10:28:58.572Z,97752.66
2022-09-10T10:31:36.466Z,97752.28
2022-09-10T10:34:29.209Z,97750.31
2022-09-10T10:37:08.277Z,97757.38
2022-09-10T10:39:53.175Z,97749.06
2022-09-10T10:42:30.454Z,97748.19
2022-09-10T10:45:11.459Z,97750.25
2022-09-10T10:47:48.469Z,97750.97
2022-09-10T10:50:31.137Z,97748.19
2022-09-10T10:53:28.438Z,97751.81
2022-09-10T10:56:05.156Z,97747.94
2022-09-10T10:58:54.515Z,97745.94
2022-09-10T11:01:25.043Z,97751.06
2022-09-10T11:04:00.948Z,97744.00
2022-09-10T11:06:35.965Z,97748.69
2022-09-10T11:09:08.635Z,97757.31
2022-09-10T11:11:45.582Z,97752.53
2022-09-10T11:14:23.069Z,97743.00
2022-09-10T11:16:58.472Z,97736.63
2022-09-10T11:19:35.718Z,97743.53
2022-09-10T11:22:12.973Z,97741.78
2022-09-10T11:24:47.926Z,97730.59
2022-09-10T11:27:20.218Z,97726.38
2022-09-10T11:29:54.501Z,97735.16
2022-09-10T11:32:31.841Z,97739.19
2022-09-10T11:35:17.930Z,97738.25
2022-09-10T11:37:55.645Z,97729.56
2022-09-10T11:40:32.106Z,97729.44
2022-09-10T11:43:04.975Z,97724.59
2022-09-10T11:45:40.948Z,97709.94
2022-09-10T11:48:17.370Z,97714.66
2022-09-10T11:50:50.685Z,97720.03
2022-09-10T11:53:23.232Z,97712.03
2022-09-10T11:56:24.412Z,97713.09
2022-09-10T11:59:04.774Z,97715.75
2022-09-10T12:01:51.803Z,97714.78
2022-09-10T12:04:51.668Z,97706.03
2022-09-10T12:07:31.822Z,97707.75
2022-09-10T12:10:14.490Z,97707.75
2022-09-10T12:12:44.982Z,97695.78
2022-09-10T12:15:19.985Z,97702.72
2022-09-10T12:17:52.221Z,97702.00
2022-09-10T12:20:22.120Z,97684.03
2022-09-10T12:22:54.653Z,97684.34
2022-09-10T12:25:33.972Z,97681.50
2022-09-10T12:28:07.622Z,97692.53
2022-09-10T12:31:01.330Z,97684.59
2022-09-10T12:33:58.030Z,97679.31
2022-09-10T12:37:14.838Z,97679.22
2022-09-10T12:39:43.319Z,97676.47
2022-09-10T12:42:32.549Z,97666.84
2022-09-10T12:45:00.674Z,97677.50
2022-09-10T12:47:52.925Z,97665.25
2022-09-10T12:50:36.270Z,97666.03
2022-09-10T12:53:30.896Z,97674.75
2022-09-10T12:56:06.283Z,97667.41
2022-09-10T12:58:50.009Z,97632.16
2022-09-10T13:01:31.334Z,97666.50
2022-09-10T13:04:02.414Z,97651.66
2022-09-10T13:06:38.209Z,97658.13
2022-09-10T13:09:18.506Z,97657.38
2022-09-10T13:11:50.457Z,97653.47
2022-09-10T13:14:25.346Z,97645.78
2022-09-10T13:16:55.239Z,97654.94
2022-09-10T13:19:49.876Z,97636.16
2022-09-10T13:22:52.217Z,97636.22
2022-09-10T13:25:34.847Z,97633.03
2022-09-10T13:28:03.028Z,97637.81
2022-09-10T13:30:32.481Z,97643.50
2022-09-10T13:33:05.483Z,97627.88
2022-09-10T13:36:13.209Z,97636.25
2022-09-10T13:39:08.265Z,97640.56
2022-09-10T13:42:11.296Z,97637.34
2022-09-10T13:44:54.808Z,97631.41
2022-09-10T13:47:32.835Z,97623.06
2022-09-10T13:50:05.241Z,97637.28
2022-09-10T13:52:36.229Z,97630.44
2022-09-10T13:55:08.634Z,97632.84
2022-09-10T13:57:41.654Z,97622.94
2022-09-10T14:00:20.663Z,97632.88
2022-09-10T14:02:52.707Z,97630.59
2022-09-10T14:05:33.334Z,97634.16
2022-09-10T14:08:05.356Z,97634.34
2022-09-10T14:10:36.661Z,97630.88
2022-09-10T14:13:05.665Z,97642.72
2022-09-10T14:15:39.533Z,97633.97
2022-09-10T14:18:11.441Z,97630.66
2022-09-10T14:20:41.085Z,97634.53
2022-09-10T14:23:15.799Z,97622.09
2022-09-10T14:25:45.921Z,97623.94
2022-09-10T14:28:35.948Z,97621.31
2022-09-10T14:31:23.110Z,97614.66
2022-09-10T14:33:52.978Z,97606.91
2022-09-10T14:36:23.099Z,97611.78
2022-09-10T14:38:57.817Z,97613.16
2022-09-10T14:41:28.362Z,97611.56
2022-09-10T14:44:15.230Z,97618.28
2022-09-10T14:46:52.362Z,97613.13
2022-09-10T14:49:26.730Z,97615.75
2022-09-10T14:51:55.638Z,97608.47
2022-09-10T14:54:24.419Z,97619.53
2022-09-10T14:56:52.898Z,97618.22
2022-09-10T14:59:30.686Z,97611.78
2022-09-10T15:02:00.795Z,97611.16
2022-09-10T15:04:31.010Z,97615.78
2022-09-10T15:07:00.733Z,97608.25
2022-09-10T15:09:31.035Z,97610.84
2022-09-10T15:12:03.345Z,97600.59
2022-09-10T15:14:32.850Z,97612.19
2022-09-10T15:17:01.570Z,97611.19
2022-09-10T15:19:30.634Z,97610.41
2022-09-10T15:21:59.629Z,97611.25
2022-09-10T15:24:28.280Z,97600.06
2022-09-10T15:26:57.312Z,97603.84
2022-09-10T15:29:26.164Z,97605.34
2022-09-10T15:31:54.249Z,97604.38
2022-09-10T15:34:21.937Z,97606.25
2022-09-10T15:36:53.170Z,97605.56
2022-09-10T15:39:21.141Z,97606.09
2022-09-10T15:41:49.093Z,97606.09
2022-09-10T15:44:18.287Z,97610.84
2022-09-10T15:46:47.053Z,97613.91
2022-09-10T15:49:14.770Z,97626.56
2022-09-10T15:51:42.530Z,97613.16
2022-09-10T15:54:12.486Z,97617.31
2022-09-10T15:56:40.948Z,97616.53
2022-09-10T15:59:10.221Z,97627.31
2022-09-10T16:01:39.368Z,97631.19
2022-09-10T16:04:07.488Z,97631.19
2022-09-10T16:06:37.906Z,97629.53
2022-09-10T16:09:09.009Z,97624.13
2022-09-10T16:11:40.343Z,97630.56
2022-09-10T16:14:12.463Z,97630.47
2022-09-10T16:16:40.875Z,97641.00
2022-09-10T16:19:09.154Z,97634.41
2022-09-10T16:21:39.159Z,97633.78
2022-09-10T16:24:07.541Z,97634.69
2022-09-10T16:26:38.772Z,97631.31
2022-09-10T16:29:08.700Z,97626.41
2022-09-10T16:31:39.054Z,97634.19
2022-09-10T16:34:08.904Z,97626.25
2022-09-10T16:36:37.977Z,97630.13
2022-09-10T16:39:12.137Z,97627.78
2022-09-10T16:41:43.663Z,97628.56
2022-09-10T16:44:12.542Z,97627.78
2022-09-10T16:46:40.584Z,97617.94
2022-09-10T16:49:12.418Z,97619.22
2022-09-10T16:51:40.643Z,97611.41
2022-09-10T16:54:09.242Z,97606.25
2022-09-10T16:56:39.904Z,97613.78
2022-09-10T16:59:13.902Z,97610.22
2022-09-10T17:01:44.389Z,97607.06
2022-09-10T17:04:18.834Z,97608.56
2022-09-10T17:06:48.102Z,97608.56
2022-09-10T17:09:16.222Z,97605.06
2022-09-10T17:11:44.044Z,97610.34
2022-09-10T17:14:13.598Z,97604.09
2022-09-10T17:16:43.680Z,97609.59
2022-09-10T17:19:14.034Z,97614.38
2022-09-10T17:21:44.293Z,97618.03
2022-09-10T17:24:13.954Z,97607.03
2022-09-10T17:26:42.713Z,97606.28
2022-09-10T17:29:14.580Z,97613.09
2022-09-10T17:31:43.038Z,97609.19
2022-09-10T17:34:13.136Z,97607.66
2022-09-10T17:36:42.252Z,97610.53
2022-09-10T17:39:10.244Z,97605.41
2022-09-10T17:41:39.548Z,97611.31
2022-09-10T17:44:07.956Z,97603.97
2022-09-10T17:46:37.137Z,97611.09
2022-09-10T17:49:05.666Z,97617.38
2022-09-10T17:51:35.605Z,97618.22
2022-09-10T17:54:03.874Z,97618.66
2022-09-10T17:56:32.388Z,97627.66
2022-09-10T17:59:02.599Z,97612.38
2022-09-10T18:01:32.079Z,97621.00
2022-09-10T18:04:01.476Z,97642.66
2022-09-10T18:06:29.810Z,97645.06
2022-09-10T18:08:58.731Z,97639.16
2022-09-10T18:11:29.608Z,97642.66
2022-09-10T18:13:59.023Z,97650.94
2022-09-10T18:16:28.750Z,97652.91
2022-09-10T18:18:59.391Z,97652.13
2022-09-10T18:21:30.930Z,97655.66
2022-09-10T18:24:01.177Z,97643.50
2022-09-10T18:26:31.319Z,97649.00
2022-09-10T18:29:01.899Z,97647.41
2022-09-10T18:31:32.199Z,97654.91
2022-09-10T18:34:00.865Z,97657.66
2022-09-10T18:36:30.357Z,97651.34
2022-09-10T18:38:58.850Z,97626.94
2022-09-10T18:41:28.590Z,97657.63
2022-09-10T18:43:59.061Z,97644.69
2022-09-10T18:46:28.996Z,97652.53
2022-09-10T18:48:57.675Z,97648.22
2022-09-10T18:51:27.488Z,97641.09
2022-09-10T18:53:59.897Z,97639.88
2022-09-10T18:56:29.831Z,97644.59
2022-09-10T18:59:00.811Z,97628.50
2022-09-10T19:01:30.950Z,97649.69
2022-09-10T19:03:59.425Z,97657.91
2022-09-10T19:06:28.748Z,97651.22
2022-09-10T19:08:59.558Z,97645.72
2022-09-10T19:11:33.065Z,97643.38
2022-09-10T19:14:02.396Z,97642.59
2022-09-10T19:16:32.373Z,97629.63
2022-09-10T19:19:02.681Z,97625.28
2022-09-10T19:21:32.479Z,97629.22
2022-09-10T19:24:02.609Z,97625.28
2022-09-10T19:26:33.105Z,97624.50
2022-09-10T19:29:02.741Z,97628.44
2022-09-10T19:31:33.812Z,97617.81
2022-09-10T19:34:04.149Z,97629.59
2022-09-10T19:36:35.272Z,97632.31
2022-09-10T19:39:06.359Z,97626.84
2022-09-10T19:41:35.467Z,97615.03
2022-09-10T19:44:04.161Z,97628.00
2022-09-10T19:46:33.317Z,97621.28
2022-09-10T19:49:01.547Z,97626.75
2022-09-10T19:51:32.069Z,97624.28
2022-09-10T19:54:00.584Z,97626.59
2022-09-10T19:56:32.244Z,97621.84
2022-09-10T19:59:02.513Z,97632.03
2022-09-10T20:01:33.017Z,97637.09
2022-09-10T20:04:02.058Z,97634.34
2022-09-10T20:06:30.611Z,97632.72
2022-09-10T20:08:59.264Z,97637.09
2022-09-10T20:11:28.504Z,97635.47
2022-09-10T20:13:59.989Z,97637.88
2022-09-10T20:16:28.445Z,97640.56
2022-09-10T20:18:56.247Z,97642.16
2022-09-10T20:21:25.939Z,97642.94
2022-09-10T20:23:55.601Z,97632.00
2022-09-10T20:26:26.629Z,97638.34
2022-09-10T20:28:57.873Z,97637.53
2022-09-10T20:31:28.107Z,97639.31
2022-09-10T20:33:57.715Z,97624.75
2022-09-10T20:36:27.324Z,97630.69
2022-09-10T20:38:56.765Z,97628.31
2022-09-10T20:41:29.949Z,97631.06
2022-09-10T20:44:01.505Z,97622.34
2022-09-10T20:46:31.662Z,97637.19
2022-09-10T20:49:02.955Z,97638.78
2022-09-10T20:51:32.761Z,97633.66
2022-09-10T20:54:01.259Z,97627.69
2022-09-10T20:56:29.280Z,97633.69
2022-09-10T20:58:57.301Z,97635.59
2022-09-10T21:01:28.482Z,97633.69
2022-09-10T21:03:59.229Z,97627.69
2022-09-10T21:06:30.072Z,97626.50
2022-09-10T21:08:57.843Z,97624.16
2022-09-10T21:11:28.512Z,97630.06
2022-09-10T21:13:58.599Z,97629.25
2022-09-10T21:16:29.976Z,97617.09
2022-09-10T21:19:00.641Z,97610.75
2022-09-10T21:21:29.985Z,97621.38
2022-09-10T21:23:59.756Z,97623.78
2022-09-10T21:26:29.523Z,97619.00
2022-09-10T21:28:58.935Z,97629.16
2022-09-10T21:31:29.255Z,97625.28
2022-09-10T21:34:02.807Z,97634.59
2022-09-10T21:36:32.055Z,97635.06
2022-09-10T21:39:01.480Z,97638.56
2022-09-10T21:41:32.097Z,97634.59
2022-09-10T21:44:00.625Z,97646.28
2022-09-10T21:46:30.390Z,97629.38
2022-09-10T21:48:58.324Z,97641.22
2022-09-10T21:51:26.497Z,97647.06
2022-09-10T21:53:55.870Z,97649.06
2022-09-10T21:56:25.844Z,97649.44
2022-09-10T21:58:53.769Z,97640.78
2022-09-10T22:01:24.233Z,97647.91
2022-09-10T22:03:54.657Z,97646.75
2022-09-10T22:06:24.563Z,97646.75
2022-09-10T22:08:55.075Z,97642.44
2022-09-10T22:11:25.560Z,97648.72
2022-09-10T22:13:55.550Z,97653.81
2022-09-10T22:16:23.595Z,97637.69
2022-09-10T22:18:53.833Z,97637.66
2022-09-10T22:21:21.526Z,97641.25
2022-09-10T22:23:51.606Z,97635.38
2022-09-10T22:26:22.914Z,97644.31
2022-09-10T22:28:54.029Z,97652.44
2022-09-10T22:31:24.162Z,97650.16
2022-09-10T22:33:55.877Z,97644.69
2022-09-10T22:36:26.181Z,97649.00
2022-09-10T22:38:56.675Z,97643.50
2022-09-10T22:41:24.714Z,97644.69
2022-09-10T22:43:53.020Z,97635.69
2022-09-10T22:46:23.017Z,97625.38
2022-09-10T22:48:51.449Z,97637.56
2022-09-10T22:51:23.637Z,97634.44
2022-09-10T22:53:51.817Z,97632.50
2022-09-10T22:56:22.081Z,97636.47
2022-09-10T22:58:51.620Z,97635.31
2022-09-10T23:01:21.178Z,97632.53
2022-09-10T23:03:49.431Z,97636.09
2022-09-10T23:06:21.300Z,97634.50
2022-09-10T23:08:51.181Z,97635.28
2022-09-10T23:11:21.828Z,97632.09
2022-09-10T23:13:52.420Z,97634.03
2022-09-10T23:16:22.196Z,97627.78
2022-09-10T23:18:52.136Z,97637.97
2022-09-10T23:21:23.071Z,97637.63
2022-09-10T23:23:52.957Z,97624.28
2022-09-10T23:26:22.601Z,97631.78
2022-09-10T23:28:51.053Z,97634.50
2022-09-10T23:31:20.991Z,97630.91
2022-09-10T23:33:55.032Z,97630.50
2022-09-10T23:36:25.032Z,97632.13
2022-09-10T23:38:52.841Z,97628.94
2022-09-10T23:41:21.561Z,97629.75
2022-09-10T23:43:49.738Z,97627.78
2022-09-10T23:46:18.571Z,97626.56
2022-09-10T23:48:46.758Z,97620.31
2022-09-10T23:51:16.453Z,97624.13
2022-09-10T23:53:45.918Z,97630.34
2022-09-10T23:56:13.950Z,97633.13
2022-09-10T23:58:42.278Z,97622.09
